sensor_id;sensor_type;location;lat;lon;timestamp;P1;durP1;ratioP1;P2;durP2;ratioP2
14080;SDS011;7116;52.152;5.392;2022-08-01T00:00:29;6.80;;;3.20;;
14080;SDS011;7116;52.152;5.392;2022-08-01T00:02:55;4.47;;;3.25;;
14080;SDS011;7116;52.152;5.392;2022-08-01T00:05:20;5.57;;;4.00;;
14080;SDS011;7116;52.152;5.392;2022-08-01T00:07:45;5.90;;;3.30;;
14080;SDS011;7116;52.152;5.392;2022-08-01T00:10:11;7.23;;;3.40;;
14080;SDS011;7116;52.152;5.392;2022-08-01T00:12:37;7.40;;;3.60;;
14080;SDS011;7116;52.152;5.392;2022-08-01T00:15:03;6.82;;;3.70;;
14080;SDS011;7116;52.152;5.392;2022-08-01T00:17:28;4.43;;;2.87;;
14080;SDS011;7116;52.152;5.392;2022-08-01T00:19:54;5.30;;;3.30;;
14080;SDS011;7116;52.152;5.392;2022-08-01T00:22:19;5.67;;;3.17;;
14080;SDS011;7116;52.152;5.392;2022-08-01T00:24:44;6.20;;;3.07;;
14080;SDS011;7116;52.152;5.392;2022-08-01T00:27:09;5.87;;;3.20;;
14080;SDS011;7116;52.152;5.392;2022-08-01T00:29:34;5.25;;;3.13;;
14080;SDS011;7116;52.152;5.392;2022-08-01T00:31:59;5.43;;;3.40;;
14080;SDS011;7116;52.152;5.392;2022-08-01T00:34:25;5.77;;;3.37;;
14080;SDS011;7116;52.152;5.392;2022-08-01T00:36:50;5.00;;;3.47;;
14080;SDS011;7116;52.152;5.392;2022-08-01T00:39:15;6.57;;;3.27;;
14080;SDS011;7116;52.152;5.392;2022-08-01T00:41:40;6.90;;;3.40;;
14080;SDS011;7116;52.152;5.392;2022-08-01T00:44:05;5.50;;;2.97;;
14080;SDS011;7116;52.152;5.392;2022-08-01T00:46:31;6.87;;;3.60;;
14080;SDS011;7116;52.152;5.392;2022-08-01T00:48:56;7.10;;;3.80;;
14080;SDS011;7116;52.152;5.392;2022-08-01T00:51:22;5.53;;;3.63;;
14080;SDS011;7116;52.152;5.392;2022-08-01T00:53:47;4.93;;;3.58;;
14080;SDS011;7116;52.152;5.392;2022-08-01T00:56:13;7.00;;;4.13;;
14080;SDS011;7116;52.152;5.392;2022-08-01T00:58:38;5.50;;;3.90;;
14080;SDS011;7116;52.152;5.392;2022-08-01T01:01:04;6.73;;;3.90;;
14080;SDS011;7116;52.152;5.392;2022-08-01T01:03:29;6.83;;;3.63;;
14080;SDS011;7116;52.152;5.392;2022-08-01T01:08:43;7.90;;;3.47;;
14080;SDS011;7116;52.152;5.392;2022-08-01T01:11:17;5.68;;;3.80;;
14080;SDS011;7116;52.152;5.392;2022-08-01T01:13:49;6.63;;;3.30;;
14080;SDS011;7116;52.152;5.392;2022-08-01T01:16:15;5.57;;;3.55;;
14080;SDS011;7116;52.152;5.392;2022-08-01T01:21:12;6.30;;;3.60;;
14080;SDS011;7116;52.152;5.392;2022-08-01T01:23:40;5.23;;;3.67;;
14080;SDS011;7116;52.152;5.392;2022-08-01T01:26:22;6.20;;;3.63;;
14080;SDS011;7116;52.152;5.392;2022-08-01T01:34:15;6.25;;;3.88;;
14080;SDS011;7116;52.152;5.392;2022-08-01T01:36:40;5.73;;;4.03;;
14080;SDS011;7116;52.152;5.392;2022-08-01T01:39:06;5.65;;;4.18;;
14080;SDS011;7116;52.152;5.392;2022-08-01T01:41:32;5.33;;;3.63;;
14080;SDS011;7116;52.152;5.392;2022-08-01T01:44:00;5.32;;;3.67;;
14080;SDS011;7116;52.152;5.392;2022-08-01T01:46:26;6.07;;;3.63;;
14080;SDS011;7116;52.152;5.392;2022-08-01T01:48:53;6.28;;;3.90;;
14080;SDS011;7116;52.152;5.392;2022-08-01T01:51:19;7.90;;;3.90;;
14080;SDS011;7116;52.152;5.392;2022-08-01T01:53:45;6.50;;;4.20;;
14080;SDS011;7116;52.152;5.392;2022-08-01T01:56:11;6.10;;;3.90;;
14080;SDS011;7116;52.152;5.392;2022-08-01T01:58:39;6.43;;;4.20;;
14080;SDS011;7116;52.152;5.392;2022-08-01T02:01:05;6.07;;;4.17;;
14080;SDS011;7116;52.152;5.392;2022-08-01T02:03:31;6.93;;;3.92;;
14080;SDS011;7116;52.152;5.392;2022-08-01T02:05:57;5.88;;;3.45;;
14080;SDS011;7116;52.152;5.392;2022-08-01T02:08:24;8.30;;;4.30;;
14080;SDS011;7116;52.152;5.392;2022-08-01T02:10:50;5.43;;;3.90;;
14080;SDS011;7116;52.152;5.392;2022-08-01T02:13:36;6.38;;;3.88;;
14080;SDS011;7116;52.152;5.392;2022-08-01T02:16:01;6.27;;;3.60;;
14080;SDS011;7116;52.152;5.392;2022-08-01T02:18:27;6.78;;;3.67;;
14080;SDS011;7116;52.152;5.392;2022-08-01T02:20:53;6.73;;;4.10;;
14080;SDS011;7116;52.152;5.392;2022-08-01T02:23:19;6.40;;;3.60;;
14080;SDS011;7116;52.152;5.392;2022-08-01T02:25:48;6.15;;;3.72;;
14080;SDS011;7116;52.152;5.392;2022-08-01T02:28:15;7.53;;;4.05;;
14080;SDS011;7116;52.152;5.392;2022-08-01T02:30:44;5.30;;;3.50;;
14080;SDS011;7116;52.152;5.392;2022-08-01T02:33:17;5.90;;;3.70;;
14080;SDS011;7116;52.152;5.392;2022-08-01T02:35:43;5.13;;;3.65;;
14080;SDS011;7116;52.152;5.392;2022-08-01T02:38:10;6.32;;;3.90;;
14080;SDS011;7116;52.152;5.392;2022-08-01T02:40:37;6.97;;;4.10;;
14080;SDS011;7116;52.152;5.392;2022-08-01T02:43:03;5.65;;;4.10;;
14080;SDS011;7116;52.152;5.392;2022-08-01T02:45:30;6.47;;;4.00;;
14080;SDS011;7116;52.152;5.392;2022-08-01T02:48:00;7.32;;;4.35;;
14080;SDS011;7116;52.152;5.392;2022-08-01T02:50:26;8.40;;;4.88;;
14080;SDS011;7116;52.152;5.392;2022-08-01T02:52:53;7.78;;;4.45;;
14080;SDS011;7116;52.152;5.392;2022-08-01T02:55:19;9.43;;;3.90;;
14080;SDS011;7116;52.152;5.392;2022-08-01T02:57:44;6.95;;;4.45;;
14080;SDS011;7116;52.152;5.392;2022-08-01T03:00:12;6.28;;;3.92;;
14080;SDS011;7116;52.152;5.392;2022-08-01T03:02:37;6.30;;;3.97;;
14080;SDS011;7116;52.152;5.392;2022-08-01T03:05:04;6.80;;;4.05;;
14080;SDS011;7116;52.152;5.392;2022-08-01T03:07:29;9.50;;;4.20;;
14080;SDS011;7116;52.152;5.392;2022-08-01T03:09:55;6.47;;;4.27;;
14080;SDS011;7116;52.152;5.392;2022-08-01T03:12:23;6.90;;;4.70;;
14080;SDS011;7116;52.152;5.392;2022-08-01T03:14:51;5.63;;;3.92;;
14080;SDS011;7116;52.152;5.392;2022-08-01T03:17:16;7.05;;;4.47;;
14080;SDS011;7116;52.152;5.392;2022-08-01T03:19:43;5.25;;;3.92;;
14080;SDS011;7116;52.152;5.392;2022-08-01T03:22:10;7.63;;;4.43;;
14080;SDS011;7116;52.152;5.392;2022-08-01T03:24:36;6.77;;;3.80;;
14080;SDS011;7116;52.152;5.392;2022-08-01T03:27:02;6.47;;;4.20;;
14080;SDS011;7116;52.152;5.392;2022-08-01T03:29:28;5.30;;;4.28;;
14080;SDS011;7116;52.152;5.392;2022-08-01T03:31:54;6.40;;;3.72;;
14080;SDS011;7116;52.152;5.392;2022-08-01T03:34:20;5.55;;;3.88;;
14080;SDS011;7116;52.152;5.392;2022-08-01T03:36:52;4.60;;;3.50;;
14080;SDS011;7116;52.152;5.392;2022-08-01T03:39:19;5.60;;;3.80;;
14080;SDS011;7116;52.152;5.392;2022-08-01T03:41:48;5.35;;;3.67;;
14080;SDS011;7116;52.152;5.392;2022-08-01T03:44:16;5.47;;;3.63;;
14080;SDS011;7116;52.152;5.392;2022-08-01T03:46:45;5.22;;;3.67;;
14080;SDS011;7116;52.152;5.392;2022-08-01T03:49:11;7.35;;;4.50;;
14080;SDS011;7116;52.152;5.392;2022-08-01T03:51:39;4.30;;;3.55;;
14080;SDS011;7116;52.152;5.392;2022-08-01T03:54:08;5.70;;;3.57;;
14080;SDS011;7116;52.152;5.392;2022-08-01T03:56:34;6.95;;;4.30;;
14080;SDS011;7116;52.152;5.392;2022-08-01T03:59:00;5.90;;;4.30;;
14080;SDS011;7116;52.152;5.392;2022-08-01T04:01:26;5.63;;;3.73;;
14080;SDS011;7116;52.152;5.392;2022-08-01T04:03:52;6.22;;;4.43;;
14080;SDS011;7116;52.152;5.392;2022-08-01T04:06:18;9.80;;;4.03;;
14080;SDS011;7116;52.152;5.392;2022-08-01T04:08:43;5.90;;;3.90;;
14080;SDS011;7116;52.152;5.392;2022-08-01T04:11:20;4.83;;;3.63;;
14080;SDS011;7116;52.152;5.392;2022-08-01T04:13:45;4.83;;;3.60;;
14080;SDS011;7116;52.152;5.392;2022-08-01T04:16:10;6.70;;;3.83;;
14080;SDS011;7116;52.152;5.392;2022-08-01T04:18:35;7.07;;;3.70;;
14080;SDS011;7116;52.152;5.392;2022-08-01T04:21:00;5.03;;;3.50;;
14080;SDS011;7116;52.152;5.392;2022-08-01T04:23:26;6.43;;;3.57;;
14080;SDS011;7116;52.152;5.392;2022-08-01T04:25:52;4.97;;;3.47;;
14080;SDS011;7116;52.152;5.392;2022-08-01T04:28:18;5.97;;;3.72;;
14080;SDS011;7116;52.152;5.392;2022-08-01T04:30:46;6.00;;;4.32;;
14080;SDS011;7116;52.152;5.392;2022-08-01T04:33:13;5.87;;;3.63;;
14080;SDS011;7116;52.152;5.392;2022-08-01T04:35:41;6.07;;;3.00;;
14080;SDS011;7116;52.152;5.392;2022-08-01T04:38:08;7.88;;;3.45;;
14080;SDS011;7116;52.152;5.392;2022-08-01T04:40:34;6.95;;;3.50;;
14080;SDS011;7116;52.152;5.392;2022-08-01T04:43:00;5.90;;;4.60;;
14080;SDS011;7116;52.152;5.392;2022-08-01T04:45:25;6.00;;;2.80;;
14080;SDS011;7116;52.152;5.392;2022-08-01T04:47:51;2.83;;;2.40;;
14080;SDS011;7116;52.152;5.392;2022-08-01T04:50:16;3.70;;;2.37;;
14080;SDS011;7116;52.152;5.392;2022-08-01T04:52:42;4.05;;;2.50;;
14080;SDS011;7116;52.152;5.392;2022-08-01T04:55:08;2.77;;;2.43;;
14080;SDS011;7116;52.152;5.392;2022-08-01T04:57:34;2.53;;;2.33;;
14080;SDS011;7116;52.152;5.392;2022-08-01T05:00:00;4.25;;;2.03;;
14080;SDS011;7116;52.152;5.392;2022-08-01T05:02:27;4.78;;;2.55;;
14080;SDS011;7116;52.152;5.392;2022-08-01T05:04:53;3.53;;;2.00;;
14080;SDS011;7116;52.152;5.392;2022-08-01T05:07:20;3.28;;;2.25;;
14080;SDS011;7116;52.152;5.392;2022-08-01T05:09:45;3.40;;;2.10;;
14080;SDS011;7116;52.152;5.392;2022-08-01T05:12:15;2.40;;;2.10;;
14080;SDS011;7116;52.152;5.392;2022-08-01T05:14:43;3.87;;;2.40;;
14080;SDS011;7116;52.152;5.392;2022-08-01T05:17:09;2.80;;;2.35;;
14080;SDS011;7116;52.152;5.392;2022-08-01T05:19:34;2.87;;;2.17;;
14080;SDS011;7116;52.152;5.392;2022-08-01T05:22:01;3.15;;;2.05;;
14080;SDS011;7116;52.152;5.392;2022-08-01T05:24:33;2.25;;;1.88;;
14080;SDS011;7116;52.152;5.392;2022-08-01T05:26:59;2.80;;;1.97;;
14080;SDS011;7116;52.152;5.392;2022-08-01T05:29:24;2.63;;;2.03;;
14080;SDS011;7116;52.152;5.392;2022-08-01T05:31:50;5.33;;;2.30;;
14080;SDS011;7116;52.152;5.392;2022-08-01T05:34:16;3.83;;;2.33;;
14080;SDS011;7116;52.152;5.392;2022-08-01T05:36:41;3.17;;;2.10;;
14080;SDS011;7116;52.152;5.392;2022-08-01T05:39:06;6.37;;;2.87;;
14080;SDS011;7116;52.152;5.392;2022-08-01T05:41:32;3.50;;;1.93;;
14080;SDS011;7116;52.152;5.392;2022-08-01T05:43:57;2.20;;;1.80;;
14080;SDS011;7116;52.152;5.392;2022-08-01T05:46:22;2.57;;;1.83;;
14080;SDS011;7116;52.152;5.392;2022-08-01T05:48:47;2.23;;;1.90;;
14080;SDS011;7116;52.152;5.392;2022-08-01T05:51:13;3.10;;;2.17;;
14080;SDS011;7116;52.152;5.392;2022-08-01T05:53:38;2.83;;;1.63;;
14080;SDS011;7116;52.152;5.392;2022-08-01T05:56:04;2.22;;;1.83;;
14080;SDS011;7116;52.152;5.392;2022-08-01T05:58:29;3.70;;;2.17;;
14080;SDS011;7116;52.152;5.392;2022-08-01T06:00:56;3.17;;;2.40;;
14080;SDS011;7116;52.152;5.392;2022-08-01T06:03:22;2.90;;;1.80;;
14080;SDS011;7116;52.152;5.392;2022-08-01T06:05:47;2.20;;;1.90;;
14080;SDS011;7116;52.152;5.392;2022-08-01T06:08:12;2.37;;;2.00;;
14080;SDS011;7116;52.152;5.392;2022-08-01T06:10:37;2.83;;;2.07;;
14080;SDS011;7116;52.152;5.392;2022-08-01T06:13:03;2.13;;;1.73;;
14080;SDS011;7116;52.152;5.392;2022-08-01T06:15:28;3.00;;;2.17;;
14080;SDS011;7116;52.152;5.392;2022-08-01T06:17:54;2.33;;;1.75;;
14080;SDS011;7116;52.152;5.392;2022-08-01T06:20:19;2.60;;;2.07;;
14080;SDS011;7116;52.152;5.392;2022-08-01T06:22:44;3.17;;;1.80;;
14080;SDS011;7116;52.152;5.392;2022-08-01T06:25:10;4.20;;;2.70;;
14080;SDS011;7116;52.152;5.392;2022-08-01T06:27:35;2.20;;;1.70;;
14080;SDS011;7116;52.152;5.392;2022-08-01T06:30:00;2.60;;;1.80;;
14080;SDS011;7116;52.152;5.392;2022-08-01T06:32:25;4.77;;;2.17;;
14080;SDS011;7116;52.152;5.392;2022-08-01T06:34:51;2.95;;;2.10;;
14080;SDS011;7116;52.152;5.392;2022-08-01T06:37:16;3.73;;;2.27;;
14080;SDS011;7116;52.152;5.392;2022-08-01T06:39:41;4.65;;;2.45;;
14080;SDS011;7116;52.152;5.392;2022-08-01T06:42:09;2.80;;;2.40;;
14080;SDS011;7116;52.152;5.392;2022-08-01T06:44:35;4.93;;;2.53;;
14080;SDS011;7116;52.152;5.392;2022-08-01T06:47:00;3.33;;;2.42;;
14080;SDS011;7116;52.152;5.392;2022-08-01T06:49:25;4.03;;;2.23;;
14080;SDS011;7116;52.152;5.392;2022-08-01T06:52:12;3.67;;;2.50;;
14080;SDS011;7116;52.152;5.392;2022-08-01T06:54:42;2.90;;;1.70;;
14080;SDS011;7116;52.152;5.392;2022-08-01T06:57:42;3.35;;;2.53;;
14080;SDS011;7116;52.152;5.392;2022-08-01T07:00:13;3.33;;;2.10;;
14080;SDS011;7116;52.152;5.392;2022-08-01T07:02:44;3.75;;;2.10;;
14080;SDS011;7116;52.152;5.392;2022-08-01T07:05:10;3.37;;;2.00;;
14080;SDS011;7116;52.152;5.392;2022-08-01T07:07:35;4.60;;;2.00;;
14080;SDS011;7116;52.152;5.392;2022-08-01T07:10:00;2.27;;;2.03;;
14080;SDS011;7116;52.152;5.392;2022-08-01T07:12:25;2.83;;;2.20;;
14080;SDS011;7116;52.152;5.392;2022-08-01T07:14:51;2.43;;;1.70;;
14080;SDS011;7116;52.152;5.392;2022-08-01T07:17:18;4.27;;;2.63;;
14080;SDS011;7116;52.152;5.392;2022-08-01T07:19:45;3.45;;;2.15;;
14080;SDS011;7116;52.152;5.392;2022-08-01T07:22:12;3.08;;;2.35;;
14080;SDS011;7116;52.152;5.392;2022-08-01T07:24:38;4.13;;;1.90;;
14080;SDS011;7116;52.152;5.392;2022-08-01T07:27:04;2.93;;;2.43;;
14080;SDS011;7116;52.152;5.392;2022-08-01T07:29:29;3.83;;;2.40;;
14080;SDS011;7116;52.152;5.392;2022-08-01T07:31:54;5.03;;;2.60;;
14080;SDS011;7116;52.152;5.392;2022-08-01T07:34:20;5.80;;;2.50;;
14080;SDS011;7116;52.152;5.392;2022-08-01T07:36:46;5.65;;;2.15;;
14080;SDS011;7116;52.152;5.392;2022-08-01T07:39:11;6.03;;;2.80;;
14080;SDS011;7116;52.152;5.392;2022-08-01T07:41:36;12.13;;;3.03;;
14080;SDS011;7116;52.152;5.392;2022-08-01T07:44:01;8.10;;;2.60;;
14080;SDS011;7116;52.152;5.392;2022-08-01T07:46:27;9.17;;;3.37;;
14080;SDS011;7116;52.152;5.392;2022-08-01T07:48:52;8.17;;;3.17;;
14080;SDS011;7116;52.152;5.392;2022-08-01T07:51:17;14.10;;;3.30;;
14080;SDS011;7116;52.152;5.392;2022-08-01T07:53:42;15.60;;;3.00;;
14080;SDS011;7116;52.152;5.392;2022-08-01T07:56:07;12.83;;;3.73;;
14080;SDS011;7116;52.152;5.392;2022-08-01T07:58:33;11.30;;;3.27;;
14080;SDS011;7116;52.152;5.392;2022-08-01T08:00:58;13.20;;;2.78;;
14080;SDS011;7116;52.152;5.392;2022-08-01T08:03:24;8.70;;;2.97;;
14080;SDS011;7116;52.152;5.392;2022-08-01T08:05:49;13.47;;;3.87;;
14080;SDS011;7116;52.152;5.392;2022-08-01T08:08:14;8.10;;;2.37;;
14080;SDS011;7116;52.152;5.392;2022-08-01T08:10:40;20.40;;;2.83;;
14080;SDS011;7116;52.152;5.392;2022-08-01T08:13:06;8.83;;;3.27;;
14080;SDS011;7116;52.152;5.392;2022-08-01T08:15:31;10.53;;;2.93;;
14080;SDS011;7116;52.152;5.392;2022-08-01T08:17:56;10.63;;;3.30;;
14080;SDS011;7116;52.152;5.392;2022-08-01T08:20:21;9.93;;;3.50;;
14080;SDS011;7116;52.152;5.392;2022-08-01T08:22:50;8.40;;;2.95;;
14080;SDS011;7116;52.152;5.392;2022-08-01T08:25:15;9.80;;;2.70;;
14080;SDS011;7116;52.152;5.392;2022-08-01T08:27:40;12.87;;;2.83;;
14080;SDS011;7116;52.152;5.392;2022-08-01T08:30:06;8.00;;;2.90;;
14080;SDS011;7116;52.152;5.392;2022-08-01T08:32:32;11.37;;;3.00;;
14080;SDS011;7116;52.152;5.392;2022-08-01T08:34:57;15.75;;;3.90;;
14080;SDS011;7116;52.152;5.392;2022-08-01T08:37:23;8.90;;;3.55;;
14080;SDS011;7116;52.152;5.392;2022-08-01T08:39:48;12.15;;;3.25;;
14080;SDS011;7116;52.152;5.392;2022-08-01T08:42:13;9.77;;;3.27;;
14080;SDS011;7116;52.152;5.392;2022-08-01T08:44:41;8.50;;;2.70;;
14080;SDS011;7116;52.152;5.392;2022-08-01T08:47:07;6.95;;;2.67;;
14080;SDS011;7116;52.152;5.392;2022-08-01T08:49:32;11.37;;;2.73;;
14080;SDS011;7116;52.152;5.392;2022-08-01T08:51:58;8.73;;;3.20;;
14080;SDS011;7116;52.152;5.392;2022-08-01T08:54:23;8.50;;;2.92;;
14080;SDS011;7116;52.152;5.392;2022-08-01T08:56:49;7.77;;;2.40;;
14080;SDS011;7116;52.152;5.392;2022-08-01T08:59:15;7.47;;;2.22;;
14080;SDS011;7116;52.152;5.392;2022-08-01T09:01:41;9.33;;;2.77;;
14080;SDS011;7116;52.152;5.392;2022-08-01T09:04:06;9.85;;;2.42;;
14080;SDS011;7116;52.152;5.392;2022-08-01T09:06:31;5.87;;;2.07;;
14080;SDS011;7116;52.152;5.392;2022-08-01T09:08:57;5.27;;;2.57;;
14080;SDS011;7116;52.152;5.392;2022-08-01T09:11:22;10.43;;;2.67;;
14080;SDS011;7116;52.152;5.392;2022-08-01T09:17:00;9.25;;;2.15;;
14080;SDS011;7116;52.152;5.392;2022-08-01T09:19:26;7.05;;;2.50;;
14080;SDS011;7116;52.152;5.392;2022-08-01T09:21:59;6.78;;;2.38;;
14080;SDS011;7116;52.152;5.392;2022-08-01T09:24:25;11.38;;;2.95;;
14080;SDS011;7116;52.152;5.392;2022-08-01T09:26:51;6.00;;;2.47;;
14080;SDS011;7116;52.152;5.392;2022-08-01T09:29:18;7.75;;;2.28;;
14080;SDS011;7116;52.152;5.392;2022-08-01T09:31:44;10.05;;;2.53;;
14080;SDS011;7116;52.152;5.392;2022-08-01T09:34:09;8.88;;;2.22;;
14080;SDS011;7116;52.152;5.392;2022-08-01T09:36:45;7.03;;;2.27;;
14080;SDS011;7116;52.152;5.392;2022-08-01T09:39:13;9.40;;;2.70;;
14080;SDS011;7116;52.152;5.392;2022-08-01T09:41:39;11.63;;;2.25;;
14080;SDS011;7116;52.152;5.392;2022-08-01T09:44:04;8.07;;;2.30;;
14080;SDS011;7116;52.152;5.392;2022-08-01T09:46:29;8.40;;;2.20;;
14080;SDS011;7116;52.152;5.392;2022-08-01T09:48:55;6.53;;;1.90;;
14080;SDS011;7116;52.152;5.392;2022-08-01T09:51:34;3.53;;;1.77;;
14080;SDS011;7116;52.152;5.392;2022-08-01T09:54:00;5.35;;;2.05;;
14080;SDS011;7116;52.152;5.392;2022-08-01T09:56:26;4.25;;;1.70;;
14080;SDS011;7116;52.152;5.392;2022-08-01T09:59:00;6.37;;;2.10;;
14080;SDS011;7116;52.152;5.392;2022-08-01T10:01:25;6.10;;;2.13;;
14080;SDS011;7116;52.152;5.392;2022-08-01T10:04:07;4.53;;;1.70;;
14080;SDS011;7116;52.152;5.392;2022-08-01T10:06:32;5.90;;;1.95;;
14080;SDS011;7116;52.152;5.392;2022-08-01T10:08:57;4.80;;;1.90;;
14080;SDS011;7116;52.152;5.392;2022-08-01T10:11:22;7.80;;;2.57;;
14080;SDS011;7116;52.152;5.392;2022-08-01T10:13:48;9.53;;;2.23;;
14080;SDS011;7116;52.152;5.392;2022-08-01T10:16:13;6.40;;;1.97;;
14080;SDS011;7116;52.152;5.392;2022-08-01T10:18:39;7.10;;;1.97;;
14080;SDS011;7116;52.152;5.392;2022-08-01T10:21:05;6.68;;;1.88;;
14080;SDS011;7116;52.152;5.392;2022-08-01T10:23:34;6.90;;;2.27;;
14080;SDS011;7116;52.152;5.392;2022-08-01T10:26:00;7.25;;;2.55;;
14080;SDS011;7116;52.152;5.392;2022-08-01T10:28:26;5.53;;;2.47;;
14080;SDS011;7116;52.152;5.392;2022-08-01T10:30:51;5.83;;;2.37;;
14080;SDS011;7116;52.152;5.392;2022-08-01T10:33:17;4.40;;;1.80;;
14080;SDS011;7116;52.152;5.392;2022-08-01T10:35:42;4.43;;;1.50;;
14080;SDS011;7116;52.152;5.392;2022-08-01T10:38:10;7.70;;;1.98;;
14080;SDS011;7116;52.152;5.392;2022-08-01T10:40:35;8.50;;;1.87;;
14080;SDS011;7116;52.152;5.392;2022-08-01T10:43:02;5.93;;;2.28;;
14080;SDS011;7116;52.152;5.392;2022-08-01T10:45:27;5.70;;;2.17;;
14080;SDS011;7116;52.152;5.392;2022-08-01T10:50:35;6.30;;;2.00;;
14080;SDS011;7116;52.152;5.392;2022-08-01T10:58:11;11.82;;;2.30;;
14080;SDS011;7116;52.152;5.392;2022-08-01T11:00:36;9.40;;;2.27;;
14080;SDS011;7116;52.152;5.392;2022-08-01T11:03:02;13.03;;;2.47;;
14080;SDS011;7116;52.152;5.392;2022-08-01T11:05:30;8.23;;;2.55;;
14080;SDS011;7116;52.152;5.392;2022-08-01T11:07:56;6.63;;;2.33;;
14080;SDS011;7116;52.152;5.392;2022-08-01T11:12:57;7.53;;;2.05;;
14080;SDS011;7116;52.152;5.392;2022-08-01T11:15:24;6.38;;;2.20;;
14080;SDS011;7116;52.152;5.392;2022-08-01T11:17:49;7.33;;;2.53;;
14080;SDS011;7116;52.152;5.392;2022-08-01T11:20:17;9.88;;;2.95;;
14080;SDS011;7116;52.152;5.392;2022-08-01T11:30:38;5.90;;;2.40;;
14080;SDS011;7116;52.152;5.392;2022-08-01T11:33:03;4.63;;;2.03;;
14080;SDS011;7116;52.152;5.392;2022-08-01T11:35:30;5.57;;;2.22;;
14080;SDS011;7116;52.152;5.392;2022-08-01T11:37:56;5.77;;;1.70;;
14080;SDS011;7116;52.152;5.392;2022-08-01T11:40:28;5.87;;;2.07;;
14080;SDS011;7116;52.152;5.392;2022-08-01T11:45:46;7.13;;;2.00;;
14080;SDS011;7116;52.152;5.392;2022-08-01T11:48:22;6.28;;;2.15;;
14080;SDS011;7116;52.152;5.392;2022-08-01T11:50:47;9.18;;;1.92;;
14080;SDS011;7116;52.152;5.392;2022-08-01T11:53:14;4.33;;;1.87;;
14080;SDS011;7116;52.152;5.392;2022-08-01T11:55:43;4.57;;;1.80;;
14080;SDS011;7116;52.152;5.392;2022-08-01T11:58:10;7.25;;;2.08;;
14080;SDS011;7116;52.152;5.392;2022-08-01T12:00:35;8.40;;;2.97;;
14080;SDS011;7116;52.152;5.392;2022-08-01T12:03:02;7.80;;;2.22;;
14080;SDS011;7116;52.152;5.392;2022-08-01T12:05:28;4.00;;;1.83;;
14080;SDS011;7116;52.152;5.392;2022-08-01T12:07:54;6.65;;;2.05;;
14080;SDS011;7116;52.152;5.392;2022-08-01T12:10:21;6.60;;;2.17;;
14080;SDS011;7116;52.152;5.392;2022-08-01T12:12:47;6.53;;;2.08;;
14080;SDS011;7116;52.152;5.392;2022-08-01T12:15:13;5.37;;;1.83;;
14080;SDS011;7116;52.152;5.392;2022-08-01T12:17:40;4.57;;;1.85;;
14080;SDS011;7116;52.152;5.392;2022-08-01T12:20:07;7.50;;;2.50;;
14080;SDS011;7116;52.152;5.392;2022-08-01T12:22:32;7.00;;;2.60;;
14080;SDS011;7116;52.152;5.392;2022-08-01T12:27:32;3.80;;;1.70;;
14080;SDS011;7116;52.152;5.392;2022-08-01T12:29:57;4.23;;;1.97;;
14080;SDS011;7116;52.152;5.392;2022-08-01T12:32:30;7.30;;;2.20;;
14080;SDS011;7116;52.152;5.392;2022-08-01T12:34:56;5.80;;;1.75;;
14080;SDS011;7116;52.152;5.392;2022-08-01T12:37:22;4.60;;;2.07;;
14080;SDS011;7116;52.152;5.392;2022-08-01T12:39:47;7.80;;;1.80;;
14080;SDS011;7116;52.152;5.392;2022-08-01T12:42:13;8.70;;;1.97;;
14080;SDS011;7116;52.152;5.392;2022-08-01T12:44:38;4.65;;;1.85;;
14080;SDS011;7116;52.152;5.392;2022-08-01T12:47:05;3.20;;;1.40;;
14080;SDS011;7116;52.152;5.392;2022-08-01T12:49:31;3.85;;;1.85;;
14080;SDS011;7116;52.152;5.392;2022-08-01T12:51:56;6.45;;;1.85;;
14080;SDS011;7116;52.152;5.392;2022-08-01T12:54:22;5.00;;;1.70;;
14080;SDS011;7116;52.152;5.392;2022-08-01T12:56:50;4.00;;;1.80;;
14080;SDS011;7116;52.152;5.392;2022-08-01T12:59:24;4.00;;;1.55;;
14080;SDS011;7116;52.152;5.392;2022-08-01T13:01:53;5.27;;;2.07;;
14080;SDS011;7116;52.152;5.392;2022-08-01T13:04:19;4.22;;;1.60;;
14080;SDS011;7116;52.152;5.392;2022-08-01T13:06:44;2.22;;;1.30;;
14080;SDS011;7116;52.152;5.392;2022-08-01T13:09:10;3.10;;;1.43;;
14080;SDS011;7116;52.152;5.392;2022-08-01T13:11:37;2.65;;;1.30;;
14080;SDS011;7116;52.152;5.392;2022-08-01T13:14:02;3.40;;;1.90;;
14080;SDS011;7116;52.152;5.392;2022-08-01T13:16:28;2.77;;;1.50;;
14080;SDS011;7116;52.152;5.392;2022-08-01T13:18:54;3.53;;;1.77;;
14080;SDS011;7116;52.152;5.392;2022-08-01T13:21:21;4.40;;;1.83;;
14080;SDS011;7116;52.152;5.392;2022-08-01T13:26:44;3.65;;;1.90;;
14080;SDS011;7116;52.152;5.392;2022-08-01T13:29:10;3.80;;;1.70;;
14080;SDS011;7116;52.152;5.392;2022-08-01T13:31:35;3.53;;;1.30;;
14080;SDS011;7116;52.152;5.392;2022-08-01T13:34:01;3.53;;;1.73;;
14080;SDS011;7116;52.152;5.392;2022-08-01T13:36:26;5.47;;;1.50;;
14080;SDS011;7116;52.152;5.392;2022-08-01T13:38:53;3.45;;;1.58;;
14080;SDS011;7116;52.152;5.392;2022-08-01T13:41:37;2.92;;;1.50;;
14080;SDS011;7116;52.152;5.392;2022-08-01T13:44:03;4.87;;;1.77;;
14080;SDS011;7116;52.152;5.392;2022-08-01T13:46:28;4.43;;;1.80;;
14080;SDS011;7116;52.152;5.392;2022-08-01T13:48:53;2.40;;;1.40;;
14080;SDS011;7116;52.152;5.392;2022-08-01T13:51:18;2.63;;;1.60;;
14080;SDS011;7116;52.152;5.392;2022-08-01T13:53:44;2.70;;;1.60;;
14080;SDS011;7116;52.152;5.392;2022-08-01T13:56:09;2.83;;;1.70;;
14080;SDS011;7116;52.152;5.392;2022-08-01T13:58:35;3.15;;;1.27;;
14080;SDS011;7116;52.152;5.392;2022-08-01T14:01:00;2.53;;;1.50;;
14080;SDS011;7116;52.152;5.392;2022-08-01T14:03:25;3.30;;;1.47;;
14080;SDS011;7116;52.152;5.392;2022-08-01T14:05:50;2.70;;;1.50;;
14080;SDS011;7116;52.152;5.392;2022-08-01T14:08:15;4.27;;;1.60;;
14080;SDS011;7116;52.152;5.392;2022-08-01T14:10:41;2.63;;;1.40;;
14080;SDS011;7116;52.152;5.392;2022-08-01T14:13:06;3.80;;;2.00;;
14080;SDS011;7116;52.152;5.392;2022-08-01T14:15:31;3.17;;;1.33;;
14080;SDS011;7116;52.152;5.392;2022-08-01T14:17:57;2.57;;;1.43;;
14080;SDS011;7116;52.152;5.392;2022-08-01T14:20:22;3.63;;;1.83;;
14080;SDS011;7116;52.152;5.392;2022-08-01T14:22:47;3.03;;;1.33;;
14080;SDS011;7116;52.152;5.392;2022-08-01T14:25:13;2.83;;;1.50;;
14080;SDS011;7116;52.152;5.392;2022-08-01T14:27:38;2.53;;;1.30;;
14080;SDS011;7116;52.152;5.392;2022-08-01T14:30:05;3.83;;;1.88;;
14080;SDS011;7116;52.152;5.392;2022-08-01T14:32:30;3.70;;;1.77;;
14080;SDS011;7116;52.152;5.392;2022-08-01T14:34:55;4.03;;;1.73;;
14080;SDS011;7116;52.152;5.392;2022-08-01T14:37:21;3.08;;;1.45;;
14080;SDS011;7116;52.152;5.392;2022-08-01T14:39:47;3.30;;;1.73;;
14080;SDS011;7116;52.152;5.392;2022-08-01T14:42:12;3.67;;;1.47;;
14080;SDS011;7116;52.152;5.392;2022-08-01T14:44:37;2.63;;;1.57;;
14080;SDS011;7116;52.152;5.392;2022-08-01T14:47:02;4.30;;;1.80;;
14080;SDS011;7116;52.152;5.392;2022-08-01T14:49:28;3.43;;;1.50;;
14080;SDS011;7116;52.152;5.392;2022-08-01T14:51:53;6.67;;;1.93;;
14080;SDS011;7116;52.152;5.392;2022-08-01T14:54:18;8.03;;;1.90;;
14080;SDS011;7116;52.152;5.392;2022-08-01T14:56:44;3.58;;;1.63;;
14080;SDS011;7116;52.152;5.392;2022-08-01T14:59:09;4.60;;;2.00;;
14080;SDS011;7116;52.152;5.392;2022-08-01T15:01:34;2.33;;;1.23;;
14080;SDS011;7116;52.152;5.392;2022-08-01T15:03:59;4.73;;;1.70;;
14080;SDS011;7116;52.152;5.392;2022-08-01T15:06:24;3.37;;;1.57;;
14080;SDS011;7116;52.152;5.392;2022-08-01T15:08:57;4.77;;;1.93;;
14080;SDS011;7116;52.152;5.392;2022-08-01T15:11:22;3.63;;;1.60;;
14080;SDS011;7116;52.152;5.392;2022-08-01T15:13:48;6.23;;;1.70;;
14080;SDS011;7116;52.152;5.392;2022-08-01T15:16:33;2.88;;;1.52;;
14080;SDS011;7116;52.152;5.392;2022-08-01T15:18:58;3.20;;;1.77;;
14080;SDS011;7116;52.152;5.392;2022-08-01T15:21:23;4.80;;;2.23;;
14080;SDS011;7116;52.152;5.392;2022-08-01T15:23:48;3.70;;;1.60;;
14080;SDS011;7116;52.152;5.392;2022-08-01T15:26:13;2.50;;;1.43;;
14080;SDS011;7116;52.152;5.392;2022-08-01T15:28:38;2.47;;;1.57;;
14080;SDS011;7116;52.152;5.392;2022-08-01T15:31:06;8.15;;;1.80;;
14080;SDS011;7116;52.152;5.392;2022-08-01T15:33:31;4.03;;;1.53;;
14080;SDS011;7116;52.152;5.392;2022-08-01T15:35:56;2.47;;;1.33;;